Home

[1].2..3.
MP3/FLAC - Release Name, 784 releases = 33,22 GB
PREV   << 2022-10-21 >>  NEXT
 Sparkling-Not_The_Right_Place_(COMA_Remix)-(MOSHI548)-SINGLE-WEB-2022-PTC 13,21 MB PTC 2022-10-21
 Kinky-Fierrro-ES-WEB-2022-RUIDO 77,53 MB RUIDO 2022-10-21
 VA-Pik_Records_Presents_Hall_Of_Game_Compilation-CD-FLAC-2002-RAGEFLAC 457,55 MB RAGEFLAC 2022-10-21
 KGP-Tha_UnGod-CD-FLAC-2002-RAGEFLAC 460,63 MB RAGEFLAC 2022-10-21
 KGP-Necrology_Revamped-REISSUE-CDR-FLAC-2005-RAGEFLAC 448,00 MB RAGEFLAC 2022-10-21
 Major_Pain-Like_Dis_Here-CD-FLAC-2001-RAGEFLAC 382,21 MB RAGEFLAC 2022-10-21
 M-Dub-The_G_Spot-CDR-FLAC-2005-RAGEFLAC 280,40 MB RAGEFLAC 2022-10-21
 Cassidy-B.A.R.S._The_Barry_Adrian_Reese_Story-CD-FLAC-2007-CALiFLAC 417,64 MB CALiFLAC 2022-10-21
 Codac-Codac-CDR-FLAC-2007-RAGEFLAC 147,64 MB RAGEFLAC 2022-10-21
 Mims-Music_Is_My_Savior-CD-FLAC-2007-CALiFLAC 383,72 MB CALiFLAC 2022-10-21
 DIB--Lauxlake_001-(DWXD001)-WEB-2022-BABAS 52,68 MB BABAS 2022-10-21
 M.M.M.F.D.-Deadly_Drug-CD-FLAC-2020-RAGEFLAC 299,86 MB RAGEFLAC 2022-10-21
 Son_Kota-Termos-(SATYA006)-WEB-2022-PTC 75,96 MB PTC 2022-10-21
 M.M.M.F.D.-Deadly_Drug-CD-2020-RAGEMP3 81,97 MB RAGEMP3 2022-10-21
 Godlands-Sleeper__Sicko-(MCS1487)-WEB-2022-PTC 10,60 MB PTC 2022-10-21
 Time_2_Pay-Demo_21-WEB-2021-FiH 18,75 MB FiH 2022-10-21
 Time_And_Distance-Wounds-EP-WEB-2019-FiH 26,31 MB FiH 2022-10-21
 VA-KT_VA-003-WEB-2022-BABAS 75,23 MB BABAS 2022-10-21
 Witchtrial-Born_In_Sin-EP-WEB-2018-FiH 24,40 MB FiH 2022-10-21
 Witchtrial-Witchtrial-EP-WEB-2019-FiH 52,97 MB FiH 2022-10-21
 Joely_and_Reality-Gangstas_In_Uniform-(24KJ047)-WEB-2022-PTC 22,02 MB PTC 2022-10-21
 Witness_The_Fall-Closure-EP-WEB-2020-FiH 51,48 MB FiH 2022-10-21
 World_I_Hate-Collapse-EP-WEB-2020-FiH 23,05 MB FiH 2022-10-21
 Worldpurge-Seconds_To_Prepare-EP-WEB-2022-FiH 27,83 MB FiH 2022-10-21
 VA-Deadline-SINGLE-WEB-FR-2022-L0sS 11,47 MB L0sS 2022-10-21
 Symbiote-Live_From_The_Dungeon-WEB-2021-FiH 39,39 MB FiH 2022-10-21
 Systema-Ultima_Guerra-ES-WEB-2021-FiH 38,88 MB FiH 2022-10-21
 Tear_Drop-Circle_Of_Pain-EP-WEB-2020-FiH 34,15 MB FiH 2022-10-21
 Tear_Drop-Did_You_Wanna_Love_Me_To_Death-EP-WEB-2020-FiH 32,05 MB FiH 2022-10-21
 Dr._Dooom-First_Come_First_Served-CD-FLAC-1999-RAGEFLAC 412,24 MB RAGEFLAC 2022-10-21
 The_Complicators__Empire_Down-The_Complicators__Empire_Down-Split-EP-WEB-2018-FiH 21,91 MB FiH 2022-10-21
 The_Deathless-Audio_Sangha_Vol._1-EP-WEB-2021-FiH 32,24 MB FiH 2022-10-21
 The_End_Of_Everything-Things_Are_About_To_Change-EP-WEB-2020-FiH 29,21 MB FiH 2022-10-21
 The_Enforcers-Rock_Against_Society-WEB-2021-FiH 48,57 MB FiH 2022-10-21
 The_Meat-Learn_To_Fear-EP-WEB-2020-FiH 17,74 MB FiH 2022-10-21
 The_Meat-The_Meat_Shall_Inherit_The_Earth-EP-WEB-2019-FiH 22,65 MB FiH 2022-10-21
 The_Pack-Hunting_Season-EP-WEB-2021-FiH 22,01 MB FiH 2022-10-21
 The_Thrill-The_Thrill-EP-WEB-2021-FiH 21,46 MB FiH 2022-10-21
 Sante-Applaud-(DENSER004)-WEB-2022-PTC 27,98 MB PTC 2022-10-21
 These_Streets-Expect_The_Worst-EP-WEB-2020-FiH 34,46 MB FiH 2022-10-21
 Mennie-Fusion-(DENSER005)-WEB-2022-PTC 26,94 MB PTC 2022-10-21
 Mariel_Mariel-No_Me_Despierten-2007-RUIDO 110,16 MB RUIDO 2022-10-21
 Dimmish-Edgy-(DENSER007)-WEB-2022-PTC 26,04 MB PTC 2022-10-21
 Time_And_Pressure-Halfway_Down-WEB-2021-FiH 45,34 MB FiH 2022-10-21
 Mariel_Mariel-La_Batalla-ES-WEB-2022-RUIDO 99,56 MB RUIDO 2022-10-21
 Tunnel_Vision-Shame_Spiral-EP-WEB-2021-FiH 23,81 MB FiH 2022-10-21
 Turquoise-Hantise-FR-WEB-2021-FiH 36,52 MB FiH 2022-10-21
 UT__EX-UT__EX-EP-WEB-2021-FiH 29,38 MB FiH 2022-10-21
 Mariel_Mariel-Foto_Pa_Ti-ES-WEB-2013-RUIDO 85,46 MB RUIDO 2022-10-21
 Mindforce-New_Lords-2022-FNT 35,78 MB FNT 2022-10-21
 Underthrow-Surface-EP-WEB-2020-FiH 27,99 MB FiH 2022-10-21
 Mindforce-New_Lords-CD-FLAC-2022-FAiNT 129,34 MB FAiNT 2022-10-21
 Urban_Carnage-Nihai_Infilak-WEB-2021-FiH 23,53 MB FiH 2022-10-21
 Vainoa-Pelon_Varjo-FI-EP-WEB-2021-FiH 39,83 MB FiH 2022-10-21
 Urn-Urn-WEB-2021-FiH 41,15 MB FiH 2022-10-21
 Time_And_Pressure-The_Gateway_City_Sound-WEB-2019-FiH 46,75 MB FiH 2022-10-21
 Vainoa-Vainoa-FI-EP-WEB-2018-FiH 30,63 MB FiH 2022-10-21
 Vent-Escape_From_Myself-EP-WEB-2020-FiH 19,23 MB FiH 2022-10-21
 Victim_To_None-Divine_Understanding-EP-WEB-2018-FiH 38,89 MB FiH 2022-10-21
 Victim_To_None-Victim_To_None-WEB-2020-FiH 27,61 MB FiH 2022-10-21
 Lewis_Kent-Codes_EP-(SLR019)-WEB-2022-PTC 56,51 MB PTC 2022-10-21
 View_From_The_Soyuz-In_Misty_Path-EP-WEB-2021-FiH 37,01 MB FiH 2022-10-21
 Violent_Way-Violent_Way-EP-WEB-2021-FiH 21,01 MB FiH 2022-10-21
 GhostZWE-The_Exodus-(PHRS0003)-WEB-2022-PTC 63,87 MB PTC 2022-10-21
 Wall_Breaker-Resurrect-WEB-2020-FiH 12,95 MB FiH 2022-10-21
 Vital_Force-Hard_To_Be_A_God-EP-WEB-2019-FiH 30,02 MB FiH 2022-10-21
 War_Prayer-War_Prayer-EP-WEB-2019-FiH 20,94 MB FiH 2022-10-21
 Victim_To_None-True_Sight-EP-WEB-2019-FiH 19,61 MB FiH 2022-10-21
 Wasteland-Demo_2020-WEB-2020-FiH 11,07 MB FiH 2022-10-21
 Weak_Ties-Find_A_Way-WEB-2021-FiH 58,41 MB FiH 2022-10-21
 Weak_Ties-Weak_Ties-EP-WEB-2016-FiH 21,79 MB FiH 2022-10-21
 Weak_Ties-Weak_Ties-WEB-2017-FiH 38,83 MB FiH 2022-10-21
 Sundays-Free_At_Loss-EP-WEB-2019-FiH 36,63 MB FiH 2022-10-21
 Sundown-Mixtape-WEB-2020-FiH 19,88 MB FiH 2022-10-21
 Suburban_Resistance-SRIII_Songs_Of_The_Dead-WEB-2022-FiH 135,92 MB FiH 2022-10-21
 ReyandKjavik-Akya_(Dogu_Civicik_Remix)-(541416513791D)-WEB-2022-PTC 39,27 MB PTC 2022-10-21
 Supine-No_Altar_For_The_Company_Man-WEB-2021-FiH 53,63 MB FiH 2022-10-21
 Suspect-Suspect-Demo-WEB-2021-FiH 18,55 MB FiH 2022-10-21
 VA-Kuruka-(LYREE003)-WEB-2022-BABAS 66,90 MB BABAS 2022-10-21
 Holy_Kidd_And_Jeff_Le_Nerf-La_Maladie_Des_Mots-SINGLE-WEB-FR-2022-L0sS 5,47 MB L0sS 2022-10-21
 Sick_Minds-Too_Dumb_To_Die-WEB-2021-FiH 54,88 MB FiH 2022-10-21
 Skunk_Gbg-Skunk_Gbg-EP-WEB-2021-FiH 34,30 MB FiH 2022-10-21
 Slant-Vain_Attempt-EP-WEB-2019-FiH 16,47 MB FiH 2022-10-21
 Slugger-Slugger-EP-WEB-2022-FiH 33,95 MB FiH 2022-10-21
 Soon-What_The_Fuck_Did_We_Do_To_The_Earth-WEB-2020-FiH 28,43 MB FiH 2022-10-21
 Yannick_Noah-La_Marfee-WEB-FR-2022-L0sS 90,72 MB L0sS 2022-10-21
 Stray_Dogs-Domesticated-EP-WEB-2021-FiH 18,49 MB FiH 2022-10-21
 Stray_Dogs-Routine-EP-WEB-2018-FiH 29,77 MB FiH 2022-10-21
 Siren-Sirenes-WEB-FR-2022-L0sS 123,06 MB L0sS 2022-10-21
 Street_Soldier-Northern_Hate-EP-WEB-2019-FiH 20,87 MB FiH 2022-10-21
 Strict-2021_Promo-WEB-2021-FiH 13,34 MB FiH 2022-10-21
 Strict-Eight_Twelve-EP-WEB-2019-FiH 23,44 MB FiH 2022-10-21
 Toribio--Brown_Cocoa_Skin-(RFR001)-WEB-2022-BABAS 60,97 MB BABAS 2022-10-21
 Stubborn_Will-Contempt-EP-WEB-2021-FiH 29,57 MB FiH 2022-10-21
 Subliminal_Excess-2020-EP-WEB-2020-FiH 24,08 MB FiH 2022-10-21
 Subtype_Zero-Ceremonious_Extinction-EP-WEB-2020-FiH 29,41 MB FiH 2022-10-21
 Salvation-Imminent_Ruin-EP-WEB-2020-FiH 42,60 MB FiH 2022-10-21
 Ron_Sexsmith-Time_Being-(VVR1089328)-Digipak-CD-FLAC-2006-RUTHLESS 253,46 MB RUTHLESS 2022-10-21
 Same_Son-Manifest-EP-WEB-2020-FiH 23,93 MB FiH 2022-10-21
 Grodash_And_Furax_Barbarossa-Thugs_N_Harmony-SINGLE-WEB-FR-2022-L0sS 8,65 MB L0sS 2022-10-21
 Scowl-Reality_After_Reality.-EP-WEB-2019-FiH 17,16 MB FiH 2022-10-21
 Scowl-Scowl-Demo-WEB-2019-FiH 18,56 MB FiH 2022-10-21
 Scumfire-Emotionally_Exhausted__Morally_Bankrupt-EP-WEB-2020-FiH 23,20 MB FiH 2022-10-21
 Scumfire-Trash_Film-EP-WEB-2021-FiH 22,08 MB FiH 2022-10-21
 Scumfire-Two_Songs-WEB-2022-FiH 12,79 MB FiH 2022-10-21
 Second_Sight-Stuck_With_The_Flow-EP-WEB-2019-FiH 28,14 MB FiH 2022-10-21
 Savage_Beat-Three_Chord_Disciple-EP-WEB-2022-FiH 63,20 MB FiH 2022-10-21
 Severed_Beliefs-Severed_Beliefs-EP-WEB-2019-FiH 33,97 MB FiH 2022-10-21
 The_Clash-The_Clash-(4953452)-REISSUE-CD-FLAC-1999-RUTHLESS 290,78 MB RUTHLESS 2022-10-21
 Sex_Reasons-Guilty_All_Around-EP-WEB-2020-FiH 22,02 MB FiH 2022-10-21
 Shadowman-Solidarity_In_Solitude-EP-WEB-2020-FiH 25,73 MB FiH 2022-10-21
 Shellshock-Damage_Control-EP-WEB-2021-FiH 29,66 MB FiH 2022-10-21
 SickOnes-Candid__The_Step__Exit_Years-WEB-2019-FiH 15,44 MB FiH 2022-10-21
 Zaho-Solo_Feat_Tayc-SINGLE-WEB-FR-2022-L0sS 6,89 MB L0sS 2022-10-21
 SickOnes-Find_Energy-EP-WEB-2018-FiH 25,32 MB FiH 2022-10-21
 Side_Eye-H4L-WEB-2021-FiH 36,25 MB FiH 2022-10-21
 Sekel_Du_91-Mechantillons_4-WEB-FR-2022-L0sS 128,10 MB L0sS 2022-10-21
 Skourge-Condemned-EP-WEB-2019-FiH 27,21 MB FiH 2022-10-21
 Natty_Jean-Nouyo-SINGLE-WEB-FR-2022-L0sS 8,23 MB L0sS 2022-10-21
 Skourge-Hardcore_Up_Your_Ass-EP-WEB-2021-FiH 24,84 MB FiH 2022-10-21
 Hatik-Generation_(Remix)-WEB-FR-2022-L0sS 12,24 MB L0sS 2022-10-21
 Slaughter_Boys-Til_The_End_Of_The_Weak-WEB-2022-FiH 77,22 MB FiH 2022-10-21
 Soul_To_Keep-Stuck_On_A_Feeling-EP-WEB-2021-FiH 20,40 MB FiH 2022-10-21
 Speed_Plans-Field_Of_Vision-WEB-2020-FiH 29,06 MB FiH 2022-10-21
 Slow_Fire_Pistol-Love_Riddled_With_Conditions-EP-WEB-2019-FiH 39,53 MB FiH 2022-10-21
 Spring_Tide-Dismantled-EP-WEB-2018-FiH 19,62 MB FiH 2022-10-21
 Camelia_Jordana-Je_Te_Suis-SINGLE-WEB-FR-2022-L0sS 8,86 MB L0sS 2022-10-21
 Spring_Tide-Sing_Your_Part-EP-WEB-2019-FiH 19,28 MB FiH 2022-10-21
 Stand_Alone-Whatever_It_Takes-EP-WEB-2020-FiH 28,58 MB FiH 2022-10-21
 Cholo-Le_Choc_Des_Mondes_Feat_Swift_Guad_BigMak78_And_Templar-SINGLE-WEB-FR-2022-L0sS 9,74 MB L0sS 2022-10-21
 Static_Age-Age_Of_Static_1995-1998-WEB-2021-FiH 57,47 MB FiH 2022-10-21
 Spring_Tide-Angles-EP-WEB-2020-FiH 21,02 MB FiH 2022-10-21
 Static_Age-Sliver_Of_Hope-WEB-2021-FiH 37,55 MB FiH 2022-10-21
 Stand_Alone-The_Demo-WEB-2019-FiH 17,29 MB FiH 2022-10-21
 Stedfast-Willing_To_Give_Demo-WEB-2021-FiH 22,17 MB FiH 2022-10-21
 Spring_Tide-If_I_Ever-EP-WEB-2018-FiH 20,46 MB FiH 2022-10-21
 Still_Numb-For_Those_Still_Holding_On.-EP-WEB-2021-FiH 39,90 MB FiH 2022-10-21
 Santiago_Salazar--Dedicated-(YXTQ009)-WEB-2022-BABAS 59,77 MB BABAS 2022-10-21
 Spell_Runner-Always_On_The_Cool-EP-WEB-2019-FiH 41,33 MB FiH 2022-10-21
 Stray_Dogs-Canine_Madness-WEB-2020-FiH 40,88 MB FiH 2022-10-21
 Deconvolution__Voidcrawler-Deconvolution__Voidcrawler-Split-EP-WEB-2020-FiH 29,95 MB FiH 2022-10-21
 Safe_State-Whats_The_Need_For_The_Rush-WEB-2020-FiH 59,47 MB FiH 2022-10-21
 Pete_Tong_-_Radio1-SAT-10-21-2022-TALiON 221,13 MB TALiON 2022-10-21
 Maire_Brennan-Misty_Eyed_Adventures-(74321233552)-CD-FLAC-1994-RUTHLESS 352,31 MB RUTHLESS 2022-10-21
 Breath_Of_Sindragosa-The_Decaying_Seeds_Of_Hatred-WEB-2022-FiH 88,89 MB FiH 2022-10-21
 Chain_Wolf-Dark_Premonitions-WEB-2022-FiH 53,41 MB FiH 2022-10-21
 Valerie_Ace-Live_At_Boiler_Room_Berlin_Intrepid_Skin-WEB-10-19-2022-CiN_INT 132,32 MB CiN_INT 2022-10-21
 Walter_Esau-Mentiroso-ES-WEB-2022-RUIDO 97,71 MB RUIDO 2022-10-21
 Francois_X-Live_At_Boiler_Room_Berlin_Intrepid_Skin-WEB-10-19-2022-CiN_INT 131,82 MB CiN_INT 2022-10-21
 Daniel_Avery-Live_From_DJ_MAG_Presents_ADE_Party-WEB-10-20-2022-CiN_INT 195,33 MB CiN_INT 2022-10-21
 Greg_Trooper-Popular_Demons-(KOC-CD-7997)-CD-FLAC-1998-RUTHLESS 310,93 MB RUTHLESS 2022-10-21
 Gabrielle_Kwarteng-Live_From_DJ_MAG_Presents_ADE_Party-WEB-10-20-2022-CiN_INT 137,73 MB CiN_INT 2022-10-21
 John_Hiatt-Yall_Caught_-_The_Ones_That_Got_Away_1979-1985-(924247-2)-CD-FLAC-1989-RUTHLESS 304,82 MB RUTHLESS 2022-10-21
 Loveland_Festival_2022-La_Fleur_Live-WEB-08-13-2022-CiN_INT 217,79 MB CiN_INT 2022-10-21
 Klaudia_Gawlas-Suara_Podcast_277-WEB-10-15-2022-CiN_INT 138,41 MB CiN_INT 2022-10-21
 Julian_Dawson-Headlines-(74321130052)-CD-FLAC-1993-RUTHLESS 304,37 MB RUTHLESS 2022-10-21
 Art_Tatum-20th_Century_Piano_Genius-(531763-2)-2CD-FLAC-1996-RUTHLESS 501,56 MB RUTHLESS 2022-10-21
 Marcus_L-Live_At_Boiler_Room_Berlin_Intrepid_Skin-WEB-10-19-2022-CiN_INT 139,87 MB CiN_INT 2022-10-21
 Francis_Dunnery-Fearless-(7567-82582-2)-CD-FLAC-1994-RUTHLESS 328,91 MB RUTHLESS 2022-10-21
 Bruce_Dickinson-Scream_For_Me_Brazil-CD-FLAC-1999-FAiNT 505,26 MB FAiNT 2022-10-21
 DAX_J-Live_At_Boiler_Room_Berlin_Intrepid_Skin-WEB-10-19-2022-CiN_INT 143,09 MB CiN_INT 2022-10-21
 Sudden_Waves-Showdown-(WEB)-2022-RUMBLE 38,00 MB RUMBLE 2022-10-21
 SPFDJ-Live_At_Boiler_Room_Berlin_Intrepid_Skin-WEB-10-19-2022-CiN_INT 130,34 MB CiN_INT 2022-10-21
 Defqon_1_Festival_2022-D_Fence_Live-WEB-06-25-2022-CiN_INT 137,62 MB CiN_INT 2022-10-21
 Defqon_1_Festival_2022-The_Viper_Live-WEB-06-24-2022-CiN_INT 88,93 MB CiN_INT 2022-10-21
 Defqon_1_Festival_2022-Adaro_Live-WEB-06-24-2022-CiN_INT 123,86 MB CiN_INT 2022-10-21
 Defqon_1_Festival_2022-Deepack_Live-WEB-06-26-2022-CiN_INT 100,67 MB CiN_INT 2022-10-21
 Defqon_1_Festival_2022-Andy_The_Core_Live-WEB-06-24-2022-CiN_INT 167,23 MB CiN_INT 2022-10-21
 Defqon_1_Festival_2022-Radianze_Live-WEB-06-26-2022-CiN_INT 91,39 MB CiN_INT 2022-10-21
 Markus_Schulz-Global_DJ_Broadcast_ADE_Edition-WEB-10-20-2022-CiN_INT 275,75 MB CiN_INT 2022-10-21
 Defqon_1_Festival_2022-DRS_Live-WEB-06-25-2022-CiN_INT 166,99 MB CiN_INT 2022-10-21
 Defqon_1_Festival_2022-Power_Hour-WEB-06-25-2022-CiN_INT 159,04 MB CiN_INT 2022-10-21
 Propan-Swagger-2022-GNG 61,26 MB GNG 2022-10-21
 Defqon_1_Festival_2022-Restrained_Live-WEB-06-24-2022-CiN_INT 139,37 MB CiN_INT 2022-10-21
 Maili_Metssalu-Kahe_Une_Vahel-WEB-EE-2022-KLV 80,97 MB KLV 2022-10-21
 Punkentsefaliit-Haigused_Farmis-WEB-EE-2009-KLV 96,58 MB KLV 2022-10-21
 Punkentsefaliit-Laivi_Laps-WEB-EE-2013-KLV 102,07 MB KLV 2022-10-21
 Punkentsefaliit-Nali_on_labi-WEB-EE-2022-KLV 62,23 MB KLV 2022-10-21
 Palomo-Desde_La_Hacienda_Vol._1-ES-WEB-2022-RUIDO 84,18 MB RUIDO 2022-10-21
 Rotting_Christ-The_Heretics-16BIT-WEB-FLAC-2019-ENTiTLED 318,48 MB ENTiTLED 2022-10-21
 EiK-Uduvaip-WEB-EE-2022-KLV 94,29 MB KLV 2022-10-21
 Karolin_Korre-Sudamekutse-WEB-EE-2022-KLV 116,35 MB KLV 2022-10-21
 Kirot-Kes_Otsib_See_Leiab-WEB-EE-2022-KLV 56,40 MB KLV 2022-10-21
 Lambandaz-Rets_Litter-WEB-EE-2022-KLV 61,72 MB KLV 2022-10-21
 MALEVA-Saab_Maailm_Otsa-WEB-EE-2022-KLV 91,56 MB KLV 2022-10-21
 Punkentsefaliit-Spordimehe_Geenid-WEB-EE-2016-KLV 33,37 MB KLV 2022-10-21
 Punkentsefaliit-Susimustad_motted-WEB-EE-2012-KLV 77,86 MB KLV 2022-10-21
 Ringhold-KAEV-WEB-2022-KLV 96,68 MB KLV 2022-10-21
 Trevor-OO-WEB-EE-2022-KLV 131,31 MB KLV 2022-10-21
 Palomo-Mi_Ranchito-ES-WEB-2022-RUIDO 108,53 MB RUIDO 2022-10-21
 Palomo-Desde_La_Hacienda_Vol._2-ES-WEB-2022-RUIDO 80,55 MB RUIDO 2022-10-21
 Defqon_1_Festival_2022-Mad_Dog_Live-WEB-06-26-2022-CiN_INT 137,10 MB CiN_INT 2022-10-21
 Belphegor-Blood_Magick_Necromance-16BIT-WEB-FLAC-2011-ENTiTLED 321,22 MB ENTiTLED 2022-10-21
 Belphegor-Lucifer_Incestus-16BIT-WEB-FLAC-2003-ENTiTLED 290,12 MB ENTiTLED 2022-10-21
 Belphegor-Pestapokalypse_VI-16BIT-WEB-FLAC-2006-ENTiTLED 291,09 MB ENTiTLED 2022-10-21
 A_Wake_In_Providence-Eternity-WEB-2022-KNOWN 98,51 MB KNOWN 2022-10-21
 Hypocrisy-The_Arrival-16BIT-WEB-FLAC-2004-ENTiTLED 309,30 MB ENTiTLED 2022-10-21
 In_The_Woods-Cease_the_Day-16BIT-WEB-FLAC-2018-ENTiTLED 357,36 MB ENTiTLED 2022-10-21
 In_The_Woods-Live_at_the_Caledonien_Hall-16BIT-WEB-FLAC-2003-ENTiTLED 1.010,25 MB ENTiTLED 2022-10-21
 Belphegor-Totenritual-16BIT-WEB-FLAC-2017-ENTiTLED 381,75 MB ENTiTLED 2022-10-21
 Rotting_Christ-Genesis-16BIT-WEB-FLAC-2002-ENTiTLED 374,89 MB ENTiTLED 2022-10-21
 Rotting_Christ-Lucifer_over_Athens-16BIT-WEB-FLAC-2015-ENTiTLED 968,24 MB ENTiTLED 2022-10-21
 Rotting_Christ-Non_Serviam_-a_20_Year_Apocryphal_Story-16BIT-WEB-FLAC-2012-ENTiTLED 1,10 GB ENTiTLED 2022-10-21
 Rotting_Christ-Sanctus_Diavolos-16BIT-WEB-FLAC-2004-ENTiTLED 342,66 MB ENTiTLED 2022-10-21
 Defqon_1_Festival_2022-Partyraiser_Live-WEB-06-23-2022-CiN_INT 206,92 MB CiN_INT 2022-10-21
 Rotting_Christ-The_Early_Days_(Live_in_Studio)-16BIT-WEB-FLAC-2022-ENTiTLED 405,51 MB ENTiTLED 2022-10-21
 In_The_Woods-Pure-16BIT-WEB-FLAC-2016-ENTiTLED 492,45 MB ENTiTLED 2022-10-21
 Defqon_1_Festival_2022-Ode_To_Delete_Live-WEB-06-24-2022-CiN_INT 131,91 MB CiN_INT 2022-10-21
 VA-MOVELT_HOUSE_PARTY_2-(MOMIX007)-WEB-2022-BABAS 212,93 MB BABAS 2022-10-21
 Aprillo-Humanities-WEB-2022-KLV 72,34 MB KLV 2022-10-21
 VA-MOVELT_HOUSE_PARTY-(MOMIX006)-WEB-2021-BABAS 277,02 MB BABAS 2022-10-21
 Dead_Furies-V-WEB-2022-KLV 79,65 MB KLV 2022-10-21
 Maceo_Plex_with_Oscar_And_The_Wolf-All_Night-(HIGH119)-WEB-2022-AFO 25,28 MB AFO 2022-10-21
 INGER-Higher_Self-WEB-2022-KLV 36,38 MB KLV 2022-10-21
 Joseph_Capriati-Live_From_The_Warehouse_Project_(Manchester)-WEB-10-14-2022-CiN_INT 202,40 MB CiN_INT 2022-10-21
 Janno_Trump_Clarity_Ensemble-Up_North-WEB-2022-KLV 135,69 MB KLV 2022-10-21
 Sarah_Story_-_Radio_1s_Future_Dance-SAT-10-21-2022-TALiON 219,13 MB TALiON 2022-10-21
 LUUM-The_Guide-WEB-2022-KLV 101,96 MB KLV 2022-10-21
 Leslie_Da_Bass-Constructions__Illusions-WEB-2022-KLV 84,40 MB KLV 2022-10-21
 DAX_J-Special_Jungle_DJ_Set_Live_At_Ion_Festival_(Albania)-WEB-09-10-2022-CiN_INT 140,04 MB CiN_INT 2022-10-21
 Raul_Ojamaa-inner_space-EP-WEB-2022-KLV 59,53 MB KLV 2022-10-21
 Dotwish--Cause_For_Concern-(MKS003)-WEB-2022-BABAS 74,20 MB BABAS 2022-10-21
 Eco_Festival_2022-Daniela_Haverbeck_Live-WEB-04-02-2022-CiN_INT 110,56 MB CiN_INT 2022-10-21
 VA-Secret_Ingredients_Vol_I-(MKS001)-WEB-2021-BABAS 76,52 MB BABAS 2022-10-21
 Selidos--Authentic_Basic-(MKS002)-WEB-2021-BABAS 52,07 MB BABAS 2022-10-21
 Sollydass--Fell_Asleep-(LUSTRE024EP)-WEB-2022-BABAS 47,24 MB BABAS 2022-10-21
 Eco_Festival_2022-Pet_Duo_4_Decks_Set_Live-WEB-04-02-2022-CiN_INT 218,64 MB CiN_INT 2022-10-21
 Ma.Bra._-_Clubbreaker_(Mix)-(3617051769663)-SINGLE-WEB-2022-ZzZz_INT 6,91 MB ZzZz_INT 2022-10-21
 Demuir--No_More_Explanation-(GPR001)-WEB-2022-BABAS 47,03 MB BABAS 2022-10-21
 Loveland_Festival_2022-Guy_J_B2B_Guy_Mantzur_Live-WEB-08-13-2022-CiN_INT 403,33 MB CiN_INT 2022-10-21
 Resonate_2022-Nosferatu_Warmup_Mix-WEB-10-21-2022-CiN_INT 137,09 MB CiN_INT 2022-10-21
 Fedde_Le_Grand-ADE_DJ_Set_(SLAM)-WEB-10-21-2022-CiN_INT 101,93 MB CiN_INT 2022-10-21
 VA-J-XSTAPOSE_Vol_1-(MHLBX001)-WEB-2022-BABAS 57,68 MB BABAS 2022-10-21
 John_Legend-LEGEND-(Limited_Deluxe_Edition)-2CD-2022-C4 165,76 MB C4 2022-10-21
 Eddie_Example--Gut_Punch-(SM0010)-WEB-2022-BABAS 35,59 MB BABAS 2022-10-21
 John_Legend-LEGEND-Limited_Deluxe_Edition-2CD-FLAC-2022-PERFECT 595,24 MB PERFECT 2022-10-21
 Loveland_Festival_2022-Hernan_Cattaneo_B2B_Nick_Warren_Live-WEB-08-13-2022-CiN_INT 420,08 MB CiN_INT 2022-10-21
 Ranka--Outbound-(LFR015)-WEB-2022-BABAS 47,85 MB BABAS 2022-10-21
 Aurede_-_Would_U_Do-(ONESEVENTY144)-WEB-2022-ZzZz 14,55 MB ZzZz 2022-10-21
 Loveland_Festival_2022-Gregor_Tresher_B2B_Karotte_Live-WEB-08-13-2022-CiN_INT 270,06 MB CiN_INT 2022-10-21
 Loveland_Festival_2022-Mathias_Kaden_Live-WEB-08-13-2022-CiN_INT 202,12 MB CiN_INT 2022-10-21
 Loveland_Festival_2022-Inner_City_Live-WEB-08-13-2022-CiN_INT 111,84 MB CiN_INT 2022-10-21
 Loveland_Festival_2022-VNTM_Live-WEB-08-13-2022-CiN_INT 140,16 MB CiN_INT 2022-10-21
 Loveland_Festival_2022-Secret_Cinema_B2B_Egbert_Live-WEB-08-13-2022-CiN_INT 203,14 MB CiN_INT 2022-10-21
 Loveland_Festival_2022-Dimitri_B2B_Vince_Watson_Live-WEB-08-13-2022-CiN_INT 279,38 MB CiN_INT 2022-10-21
 Minelli_x_YouNotUs_x_Willy_William_x_Malik_Harris_-_Enchante_(Younotus_Club_Mix)-WEB-2022-ZzZz_INT 16,51 MB ZzZz_INT 2022-10-21
 Kryder_-_ADE_MIXMARATHON_(SLAM)-CABLE-10-21-2022-TALiON 45,51 MB TALiON 2022-10-21
 Ape_Rave_Club_-_ADE_MIXMARATHON_(SLAM)-CABLE-10-21-2022-TALiON 42,31 MB TALiON 2022-10-21
 Danielle_Arielli--The_Green_House_Experience-(ATJ011)-WEB-2022-BABAS 55,21 MB BABAS 2022-10-21
 Martin_Vasquez--Double_Trouble-(PURISMW64)-WEB-2022-BABAS 51,05 MB BABAS 2022-10-21
 Bierkapitaen_-_Lea_(Die_Ultimativen_Remixe)-(602448639721)-WEB-DE-2022-ZzZz_INT 39,67 MB ZzZz_INT 2022-10-21
 Redman-Rockafella-TAPE-1994-GCP 46,46 MB GCP 2022-10-21
 Abdul_Raeva_pres._Hotline--The_Archive_Vol_1-(ARCHIVE001)-WEB-2021-BABAS 90,44 MB BABAS 2022-10-21
 Loveland_Festival_2022-Chris_Liebing_Live-WEB-08-13-2022-CiN_INT 273,68 MB CiN_INT 2022-10-21
 VA-Oasis-(FFRLIMITED030)-WEB-2022-BABAS 63,81 MB BABAS 2022-10-21
 VA-What_Remains_Vol_1-(TLVA01)-WEB-2022-BABAS 29,95 MB BABAS 2022-10-21
 Damian_Spider_-_Sunrise-(RU316885)-SINGLE-WEB-2022-ZzZz 6,60 MB ZzZz 2022-10-21
 Claude_Lambert_feat_Gihan_-_Stand_Up_and_Get_Ahead_(IMPP_Remix)-(4260193021138)-WEB-2022-ZzZz_INT 18,98 MB ZzZz_INT 2022-10-21
 Emiliano_Martini--Midway_Motion_EP-(PLZD001)-WEB-2022-BABAS 73,03 MB BABAS 2022-10-21
 Ajnkana--Aphelion-(CTR168)-WEB-2022-BABAS 86,89 MB BABAS 2022-10-21
 Minelli_x_YouNotUs_x_Willy_William_x_Malik_Harris_-_Enchante-SINGLE-WEB-2022-ZzZz 5,83 MB ZzZz 2022-10-21
 The_Prophet-The_Hardcore_Archive_Part_3_(1997)-WEB-10-21-2022-CiN_INT 92,69 MB CiN_INT 2022-10-21
 Seixlack--Bed_Bug_Bites-(XK004)-WEB-2016-BABAS 55,29 MB BABAS 2022-10-21
 Qnete--Devils_In_The_Dust-(XK018)-WEB-2019-BABAS 58,28 MB BABAS 2022-10-21
 E_Davd--Distant_Sun-(XK012)-WEB-2018-BABAS 68,77 MB BABAS 2022-10-21
 Kask--Periferia-(XK001)-WEB-2015-BABAS 54,73 MB BABAS 2022-10-21
 Black_Chynese--Fictional_Minds-(CTT090)-WEB-2022-BABAS 40,48 MB BABAS 2022-10-21
 Tiptoes--Cuss_Tomato-(MM030)-WEB-2022-BABAS 42,20 MB BABAS 2022-10-21
 Agent_Finch_and_Specifik-Broadway-WEB-2013-hbZ 8,79 MB hbZ 2022-10-21
 Battalions-King_of_a_Dead_World-WEB-2022-ENTiTLED 73,83 MB ENTiTLED 2022-10-21
 Cryptic_Rising-All_Decaying_Form-WEB-2022-KLV 47,78 MB KLV 2022-10-21
 Crystal_Rock_x_Pule_x_Stephanie_Schulte_-_Im_Good_(Blue)-(197187061082)-SINGLE-WEB-2022-ZzZz 6,68 MB ZzZz 2022-10-21
 Fatal_Union-Grotesque_Lobotomy-DEMO-WEB-2022-ENTiTLED 72,28 MB ENTiTLED 2022-10-21
 Witch_Blade-Mansken-WEB-SE-2022-ENTiTLED 75,47 MB ENTiTLED 2022-10-21
 Gospelheim-Ritual_And_Repetition-16BIT-44khz-WEB-FLAC-2022-OSKOREIA 261,83 MB OSKOREIA 2022-10-21
 Whirlwind_D-Original_Breaks_To_B-WEB-2020-hbZ 68,39 MB hbZ 2022-10-21
 VA-Various_Artists_001-(XK010)-WEB-2018-BABAS 48,89 MB BABAS 2022-10-21
 Jason_Hersco--Love_To_Dance-(HT105)-WEB-2022-BABAS 39,29 MB BABAS 2022-10-21
 VA-Shade_Rather_Than_Light_Anthology_Two-(SBA032)-WEB-2022-BABAS 395,57 MB BABAS 2022-10-21
 DJ_Jus-Ed--Der_Jyon-(UQ081)-WEB-2020-BABAS 167,54 MB BABAS 2022-10-21
 Alex_Zind_-_London_Bridge-(RLS00223355)-SINGLE-WEB-2022-ZzZz 5,57 MB ZzZz 2022-10-21
 Black_Math_Horseman-Black_Math_Horseman-WEB-2022-ENTiTLED 57,98 MB ENTiTLED 2022-10-21
 Minimal_Compact--Statik_Dancin-(FTN010)-WEB-2022-BABAS 34,52 MB BABAS 2022-10-21
 Black_Royal-Earthbound-WEB-2022-ENTiTLED 107,66 MB ENTiTLED 2022-10-21
 Sunstorm-Still_Roaring_(Live)-WEB-2022-KLV 106,95 MB KLV 2022-10-21
 Cassius_King-Dread_the_Dawn-WEB-2022-ENTiTLED 107,77 MB ENTiTLED 2022-10-21
 Coathanger_Abortion-Plan_C-WEB-2022-ENTiTLED 108,66 MB ENTiTLED 2022-10-21
 Folkrim-On_Foaming_Waves-WEB-2022-ENTiTLED 134,03 MB ENTiTLED 2022-10-21
 Mountainscape-Atoms_Unfurling-WEB-2022-ENTiTLED 113,41 MB ENTiTLED 2022-10-21
 Steel_Inferno-Evil_Reign-WEB-2022-ENTiTLED 97,32 MB ENTiTLED 2022-10-21
 Soprano-3615_Bonheur-SINGLE-WEB-FR-2022-OND 8,61 MB OND 2022-10-21
 VA-DJ_Jus-Ed_presents_Unity_Kolabo-(UQ005)-WEB-2007-BABAS 234,68 MB BABAS 2022-10-21
 No_Return-Requiem-WEB-2022-ENTiTLED 109,27 MB ENTiTLED 2022-10-21
 Camoflauge_Monk-42.8864N_78.8784W-WEB-2022-hbZ 68,23 MB hbZ 2022-10-21
 Grand-Grand-WEB-2022-MARR 112,58 MB MARR 2022-10-21
 Mats_Westbroek_-_Old_Life-(BYMDS218D)-WEB-2022-ZzZz 18,91 MB ZzZz 2022-10-21
 Bagaski--Praeludium-(SBA036)-WEB-2022-BABAS 128,59 MB BABAS 2022-10-21
 Capinera--Il_Volo__Suonno-(SP1003)-WEB-2022-BABAS 19,84 MB BABAS 2022-10-21
 Maruwa--Liquid_Night-(XK029)-WEB-2022-BABAS 59,16 MB BABAS 2022-10-21
 VA-Shade_Rather_Than_Light_Anthology_One-(SBA016)-WEB-2021-BABAS 365,05 MB BABAS 2022-10-21
[1].2..3.
Work time: 0.01315 seconds

Contact: 0day@bk.ru

Рейтинг@Mail.ru